This is the latest recevied weather packets stored in our database for station/object NM5PB-13. If no packets are shown the sender has not sent any weather packets the latest 10 day(s).
| Time | Temp. | Humidity | Pressure | Rain* | Wind** | Luminosity | Snow |
|---|---|---|---|---|---|---|---|
| 1787623173 | 18.89° C | 83% | 1018 hPa | 0 mm | - | - | - |
| 1787622268 | 19.44° C | 81% | 1018 hPa | 0 mm | - | - | - |
| 1787621364 | 20° C | 79% | 1018 hPa | 0 mm | - | - | - |
| 1787620460 | 21.11° C | 76% | 1018 hPa | 0 mm | - | - | - |
| 1787619557 | 21.67° C | 71% | 1018 hPa | 0 mm | - | - | - |
| 1787618653 | 22.78° C | 69% | 1018 hPa | 0 mm | - | - | - |
| 1787617749 | 23.33° C | 68% | 1018 hPa | 0 mm | - | - | - |
| 1787616844 | 23.89° C | 63% | 1018 hPa | 0 mm | - | - | - |
| 1787615942 | 23.89° C | 62% | 1017 hPa | 0 mm | - | - | - |
| 1787615039 | 24.44° C | 60% | 1017 hPa | 0 mm | - | - | - |
| 1787614133 | 25° C | 58% | 1017 hPa | 0 mm | - | - | - |
| 1787613230 | 25° C | 58% | 1017 hPa | 0 mm | - | - | - |
| 1787612323 | 25° C | 58% | 1017 hPa | 0 mm | - | - | - |
| 1787611419 | 25.56° C | 57% | 1018 hPa | 0 mm | - | - | - |
| 1787610515 | 25.56° C | 55% | 1017 hPa | 0 mm | - | - | - |
| 1787609612 | 25° C | 56% | 1017 hPa | 0 mm | - | - | - |
| 1787608707 | 25.56° C | 56% | 1018 hPa | 0 mm | - | - | - |
| 1787607804 | 25.56° C | 54% | 1018 hPa | 0 mm | - | - | - |
| 1787606899 | 25.56° C | 52% | 1017 hPa | 0 mm | - | - | - |
| 1787605995 | 26.11° C | 52% | 1018 hPa | 0 mm | - | - | - |
| 1787605093 | 26.67° C | 51% | 1018 hPa | 0 mm | - | - | - |
| 1787604187 | 26.67° C | 51% | 1018 hPa | 0 mm | - | - | - |
| 1787603279 | 26.67° C | 52% | 1018 hPa | 0 mm | - | - | - |
| 1787602376 | 26.11° C | 53% | 1018 hPa | 0 mm | - | - | - |
| 1787601472 | 25.56° C | 55% | 1018 hPa | 0 mm | - | - | - |
* Rain latest hour (hover to see other rain measurements)
** Current wind speed in m/s (hover to see current wind gust speed)